Time;durP1;ratioP1;P1;durP2;ratioP2;P2;SDS_P1;SDS_P2;PMS_P1;PMS_P2;Temp;Humidity;BMP_temperature;BMP_pressure;BME280_temperature;BME280_humidity;BME280_pressure;Samples;Min_cycle;Max_cycle;Signal;HPM_P1;HPM_P2
2022/05/27 00:04:31;;;;;;;0.70;0.70;;;;;;;18.99;47.90;97168.44;10174467;29;20056;-84
2022/05/27 00:09:50;;;;;;;0.95;0.80;;;;;;;18.98;47.80;97161.47;10174074;29;20052;-84
2022/05/27 00:15:10;;;;;;;0.80;0.70;;;;;;;18.98;48.04;97162.25;10160660;29;20063;-84
2022/05/27 00:20:30;;;;;;;0.80;0.80;;;;;;;18.96;48.12;97159.84;10178243;29;20116;-84
2022/05/27 00:25:50;;;;;;;0.93;0.80;;;;;;;18.95;47.94;97152.06;10165412;29;20044;-84
2022/05/27 00:31:09;;;;;;;1.17;0.63;;;;;;;18.96;47.91;97145.56;10186917;29;20060;-84
2022/05/27 00:36:29;;;;;;;0.85;0.85;;;;;;;18.95;47.89;97152.06;10152460;29;20088;-84
2022/05/27 00:41:48;;;;;;;0.82;0.70;;;;;;;18.94;48.14;97151.28;10164421;29;20048;-84
2022/05/27 00:47:10;;;;;;;0.75;0.75;;;;;;;18.93;47.83;97148.88;10161933;29;20228;-84
2022/05/27 00:52:31;;;;;;;1.17;0.75;;;;;;;18.93;48.08;97143.47;10163851;29;20481;-84
2022/05/27 00:58:06;;;;;;;0.98;0.90;;;;;;;18.92;47.76;97141.91;10179562;29;20116;-84
2022/05/27 01:03:26;;;;;;;2.47;0.60;;;;;;;18.90;47.83;97139.50;10172366;29;20110;-84
2022/05/27 01:08:46;;;;;;;1.58;0.63;;;;;;;18.89;47.63;97135.19;10158542;29;20059;-84
2022/05/27 01:14:16;;;;;;;0.90;0.80;;;;;;;18.90;47.50;97130.63;10166748;29;20572;-84
2022/05/27 01:25:32;;;;;;;1.33;0.70;;;;;;;18.88;47.84;97116.63;10167972;29;20055;-84
2022/05/27 01:31:17;;;;;;;0.80;0.70;;;;;;;18.87;47.73;97107.72;10155759;29;20051;-84
2022/05/27 01:37:01;;;;;;;1.75;0.90;;;;;;;18.86;47.93;97102.66;10169275;29;20052;-84
2022/05/27 01:42:36;;;;;;;1.00;0.70;;;;;;;18.86;47.94;97099.97;10165662;29;20059;-84
2022/05/27 01:48:03;;;;;;;1.08;0.80;;;;;;;18.85;47.95;97098.34;10169289;29;20389;-84
2022/05/27 01:53:46;;;;;;;0.60;0.60;;;;;;;18.84;47.78;97091.38;10165651;29;20059;-84
2022/05/27 01:59:09;;;;;;;0.70;0.70;;;;;;;18.83;47.78;97084.38;10182910;29;20424;-84
2022/05/27 02:04:33;;;;;;;0.70;0.70;;;;;;;18.83;47.65;97081.69;10184302;29;20056;-83
2022/05/27 02:10:07;;;;;;;2.72;0.80;;;;;;;18.81;47.90;97081.97;10170334;29;20443;-84
2022/05/27 02:15:31;;;;;;;0.70;0.70;;;;;;;18.80;47.73;97069.59;10153675;29;20063;-84
2022/05/27 02:21:11;;;;;;;1.05;0.60;;;;;;;18.80;47.58;97063.41;10164460;29;20583;-84
2022/05/27 02:26:32;;;;;;;0.60;0.60;;;;;;;18.77;47.84;97049.38;10183350;29;20048;-84
2022/05/27 02:31:55;;;;;;;1.30;0.70;;;;;;;18.78;47.93;97050.22;10154422;29;20072;-84
2022/05/27 02:37:52;;;;;;;1.08;0.70;;;;;;;18.75;48.12;97057.00;10168649;29;20052;-84
2022/05/27 02:43:18;;;;;;;1.25;0.70;;;;;;;18.76;47.61;97041.63;10153474;29;20052;-84
2022/05/27 02:48:42;;;;;;;0.60;0.60;;;;;;;18.75;47.68;97035.41;10165441;29;20048;-84
2022/05/27 02:54:11;;;;;;;0.95;0.90;;;;;;;18.73;47.49;97043.03;10181562;29;20157;-84
2022/05/27 02:59:32;;;;;;;1.48;0.80;;;;;;;18.72;47.63;97044.16;10169717;29;20048;-84
2022/05/27 03:04:54;;;;;;;1.50;0.90;;;;;;;18.73;47.53;97044.94;10166963;29;20059;-84
2022/05/27 03:10:27;;;;;;;0.80;0.80;;;;;;;18.73;47.53;97050.34;10181939;29;20060;-84
2022/05/27 03:16:18;;;;;;;0.70;0.70;;;;;;;18.72;47.55;97037.97;10159312;29;20059;-84
2022/05/27 03:22:06;;;;;;;1.23;0.75;;;;;;;18.70;47.20;97035.56;10154576;29;20059;-84
2022/05/27 03:27:41;;;;;;;0.80;0.80;;;;;;;18.69;47.23;97033.19;10175777;29;20056;-85
2022/05/27 03:33:26;;;;;;;0.70;0.70;;;;;;;18.68;47.41;97032.38;10167073;29;20423;-84
2022/05/27 03:38:58;;;;;;;1.13;0.90;;;;;;;18.66;47.36;97029.22;10153959;29;20447;-85
2022/05/27 03:44:19;;;;;;;1.00;0.80;;;;;;;18.64;47.33;97031.44;10144056;29;20048;-84
2022/05/27 03:49:38;;;;;;;0.95;0.70;;;;;;;18.64;47.32;97039.53;10182261;29;20472;-84
2022/05/27 03:54:58;;;;;;;1.08;0.80;;;;;;;18.65;47.45;97022.22;10167697;29;20471;-84
2022/05/27 04:00:18;;;;;;;1.75;0.75;;;;;;;18.70;47.33;97015.88;10179984;29;20060;-84
2022/05/27 04:05:39;;;;;;;0.98;0.80;;;;;;;18.71;47.52;97010.16;10163932;29;20048;-84
2022/05/27 04:10:58;;;;;;;0.80;0.80;;;;;;;18.71;47.63;97007.47;10166105;29;20496;-84
2022/05/27 04:16:17;;;;;;;1.83;0.77;;;;;;;18.71;47.58;97007.47;10152441;29;20087;-84
2022/05/27 04:21:37;;;;;;;1.23;0.70;;;;;;;18.69;47.61;97000.78;10172737;29;20432;-84
2022/05/27 04:26:57;;;;;;;0.80;0.77;;;;;;;18.68;47.54;97002.72;10169209;29;20059;-84
2022/05/27 04:32:17;;;;;;;1.02;0.80;;;;;;;18.67;47.77;96982.22;10174022;29;20060;-84
2022/05/27 04:37:37;;;;;;;0.80;0.80;;;;;;;18.67;47.87;96984.91;10172439;29;20457;-84
2022/05/27 04:42:57;;;;;;;1.00;0.90;;;;;;;18.66;47.53;96980.63;10169739;29;20127;-84
2022/05/27 04:48:18;;;;;;;2.35;0.90;;;;;;;18.66;47.97;96972.53;10173036;29;20178;-84
2022/05/27 04:53:37;;;;;;;2.25;1.00;;;;;;;18.65;47.96;96970.94;10184992;29;20518;-84
2022/05/27 04:58:56;;;;;;;0.98;0.70;;;;;;;18.66;47.99;96966.31;10186720;29;20056;-84
2022/05/27 05:04:16;;;;;;;0.75;0.75;;;;;;;18.66;47.98;96960.94;10170419;29;20048;-84
2022/05/27 05:09:37;;;;;;;0.75;0.60;;;;;;;18.66;48.12;96956.34;10185876;29;20048;-84
2022/05/27 05:14:57;;;;;;;1.52;0.90;;;;;;;18.66;48.10;96959.06;10167712;29;20052;-84
2022/05/27 05:20:20;;;;;;;1.42;0.70;;;;;;;18.65;48.11;96954.75;10172870;29;20436;-84
2022/05/27 05:25:39;;;;;;;1.08;0.77;;;;;;;18.66;48.22;96971.72;10163630;29;20103;-84
2022/05/27 05:30:58;;;;;;;1.48;1.10;;;;;;;18.65;48.33;96965.53;10171079;29;20704;-84
2022/05/27 05:36:17;;;;;;;0.80;0.80;;;;;;;18.66;48.40;96960.94;10184794;29;20411;-82
2022/05/27 05:41:39;;;;;;;0.80;0.80;;;;;;;18.63;48.42;96958.88;10187009;29;20056;-83
2022/05/27 05:47:00;;;;;;;1.13;0.85;;;;;;;18.61;48.94;96955.69;10186362;29;20067;-83
2022/05/27 05:52:19;;;;;;;1.85;0.90;;;;;;;18.60;48.77;96944.09;10171012;29;20059;-84
2022/05/27 05:57:41;;;;;;;2.58;1.00;;;;;;;18.61;49.06;96948.38;10144697;29;20052;-83
2022/05/27 06:03:00;;;;;;;2.22;1.00;;;;;;;18.61;49.20;96948.38;10155902;29;20064;-84
2022/05/27 06:08:19;;;;;;;1.73;1.00;;;;;;;18.62;49.23;96941.09;10185688;29;20451;-83
2022/05/27 06:13:42;;;;;;;1.23;0.85;;;;;;;18.62;49.14;96943.78;10184378;29;20062;-83
2022/05/27 06:19:01;;;;;;;1.65;1.00;;;;;;;18.62;49.32;96936.50;10171869;29;20400;-84
2022/05/27 06:24:20;;;;;;;1.58;0.90;;;;;;;18.64;49.24;96938.88;10171598;29;20063;-83
2022/05/27 06:35:18;;;;;;;1.20;0.90;;;;;;;18.63;49.48;96932.69;10176119;29;20414;-83
2022/05/27 06:40:37;;;;;;;2.33;1.00;;;;;;;18.63;49.54;96938.06;10213279;29;20365;-83
2022/05/27 06:45:57;;;;;;;1.88;0.93;;;;;;;18.63;49.66;96943.47;10150420;29;20048;-83
2022/05/27 06:51:18;;;;;;;2.15;1.05;;;;;;;18.64;49.75;96942.38;10171148;29;20077;-83
2022/05/27 06:56:40;;;;;;;2.75;1.10;;;;;;;18.64;49.85;96939.69;10199776;29;20055;-83
2022/05/27 07:02:00;;;;;;;2.67;0.73;;;;;;;18.65;49.66;96930.47;10214061;29;20048;-83
2022/05/27 07:07:21;;;;;;;2.78;0.95;;;;;;;18.65;49.98;96930.47;10206264;29;20052;-83
2022/05/27 07:12:40;;;;;;;2.10;0.95;;;;;;;18.66;49.98;96926.66;10157784;29;20060;-84
2022/05/27 07:18:04;;;;;;;2.72;0.90;;;;;;;18.65;49.85;96925.06;10176988;29;20716;-83
2022/05/27 07:23:23;;;;;;;2.10;1.00;;;;;;;18.67;49.83;96939.03;10187676;29;20115;-83
2022/05/27 07:28:43;;;;;;;3.00;1.17;;;;;;;18.65;50.02;96930.47;10205028;29;20051;-83
2022/05/27 07:34:03;;;;;;;2.55;1.13;;;;;;;18.65;49.79;96954.75;10166609;29;20052;-83
2022/05/27 07:39:22;;;;;;;2.33;1.05;;;;;;;18.65;49.71;96927.75;10195564;29;20052;-83
2022/05/27 07:44:41;;;;;;;2.63;1.10;;;;;;;18.65;49.75;96921.59;10198088;29;20145;-82
2022/05/27 07:50:01;;;;;;;1.98;1.10;;;;;;;18.63;49.88;96943.47;10185521;29;20063;-83
2022/05/27 07:55:20;;;;;;;2.42;0.90;;;;;;;18.63;49.94;96929.97;10191012;29;20091;-83
2022/05/27 08:00:39;;;;;;;2.55;1.02;;;;;;;18.64;49.88;96922.69;10190421;29;20062;-83
2022/05/27 08:05:59;;;;;;;2.10;1.10;;;;;;;18.64;49.96;96926.19;10176565;29;20060;-83
2022/05/27 08:11:18;;;;;;;1.67;0.80;;;;;;;18.65;49.98;96929.69;10187338;29;20048;-83
2022/05/27 08:16:39;;;;;;;2.35;1.10;;;;;;;18.66;50.14;96909.66;10176547;29;20077;-83
2022/05/27 08:21:58;;;;;;;3.13;1.00;;;;;;;18.67;50.17;96908.56;10202018;29;20504;-83
2022/05/27 08:27:18;;;;;;;2.60;1.00;;;;;;;18.68;50.05;96908.25;10184198;29;20237;-83
2022/05/27 08:32:38;;;;;;;1.92;1.13;;;;;;;18.71;50.16;96914.91;10162373;29;20150;-82
2022/05/27 08:38:01;;;;;;;1.33;0.85;;;;;;;18.72;50.11;96905.72;10161210;29;20052;-82
2022/05/27 08:43:27;;;;;;;1.48;0.90;;;;;;;18.75;50.11;96903.16;10193790;29;20122;-83
2022/05/27 08:48:50;;;;;;;0.98;0.80;;;;;;;18.82;50.29;96899.22;10185974;29;20044;-82
2022/05/27 08:54:23;;;;;;;2.40;0.90;;;;;;;18.86;50.15;96906.41;10180388;29;20048;-83
2022/05/27 08:59:42;;;;;;;2.13;0.85;;;;;;;18.91;50.21;96897.34;10180128;29;20052;-83
2022/05/27 09:05:23;;;;;;;1.45;0.85;;;;;;;18.93;50.28;96887.84;10178589;29;20055;-83
2022/05/27 09:10:46;;;;;;;1.90;0.90;;;;;;;18.96;50.20;96906.06;10173823;29;20491;-83
2022/05/27 09:16:13;;;;;;;2.03;1.00;;;;;;;19.01;50.29;96893.53;10180527;29;20456;-83
2022/05/27 09:22:20;;;;;;;1.13;0.88;;;;;;;19.04;50.41;96896.38;10173023;29;20439;-83
2022/05/27 09:28:10;;;;;;;2.45;1.00;;;;;;;19.07;50.30;96898.47;10125561;29;20060;-83
2022/05/27 09:33:31;;;;;;;1.65;0.75;;;;;;;19.09;50.26;96898.94;10187486;29;20044;-83
2022/05/27 09:38:55;;;;;;;1.92;0.82;;;;;;;19.12;50.08;96873.19;10160047;29;20062;-83
2022/05/27 09:44:26;;;;;;;1.25;0.90;;;;;;;19.16;50.22;96880.34;10174245;29;20052;-83
2022/05/27 09:49:52;;;;;;;1.25;0.90;;;;;;;19.17;50.32;96881.94;10187608;29;20048;-83
2022/05/27 09:55:28;;;;;;;2.70;1.00;;;;;;;19.21;50.30;96903.69;10182988;29;20108;-84
2022/05/27 10:00:51;;;;;;;1.38;0.75;;;;;;;19.22;50.46;96890.97;10166289;29;20063;-82
2022/05/27 10:06:15;;;;;;;1.50;0.90;;;;;;;19.23;50.08;96895.25;10201244;29;20052;-82
2022/05/27 10:11:50;;;;;;;2.20;1.00;;;;;;;19.24;50.25;96888.75;10178524;29;20500;-83
2022/05/27 10:17:15;;;;;;;1.83;0.85;;;;;;;19.24;50.43;96889.53;10168448;29;20421;-82
2022/05/27 10:22:34;;;;;;;1.15;0.77;;;;;;;19.25;50.40;96884.94;10172413;29;20060;-83
2022/05/27 10:27:54;;;;;;;1.77;0.88;;;;;;;19.25;50.07;96884.94;10186344;29;20145;-83
2022/05/27 10:33:13;;;;;;;2.95;1.35;;;;;;;19.25;50.36;96871.41;10171292;29;20067;-82
2022/05/27 10:38:35;;;;;;;1.30;0.90;;;;;;;19.26;50.62;96875.72;10176706;29;20066;-83
2022/05/27 10:44:08;;;;;;;2.42;1.00;;;;;;;19.27;50.70;96866.53;10173833;29;20170;-83
2022/05/27 10:49:40;;;;;;;1.10;0.90;;;;;;;19.30;50.42;96871.25;10171638;29;20484;-82
2022/05/27 10:55:07;;;;;;;1.42;0.95;;;;;;;19.30;50.21;96857.75;10173335;29;20052;-83
2022/05/27 11:06:31;;;;;;;1.10;0.80;;;;;;;19.33;50.26;96846.31;10159021;29;20103;-83
2022/05/27 11:12:18;;;;;;;1.45;0.93;;;;;;;19.36;50.19;96848.38;10168217;29;20052;-83
2022/05/27 11:17:46;;;;;;;1.00;0.80;;;;;;;19.39;50.23;96849.66;10149496;29;20060;-83
2022/05/27 11:23:14;;;;;;;1.13;0.73;;;;;;;19.40;50.16;96848.53;10167884;29;20048;-83
2022/05/27 11:28:47;;;;;;;1.85;0.90;;;;;;;19.41;50.19;96850.91;10170432;29;20056;-83
2022/05/27 11:34:53;;;;;;;2.03;0.90;;;;;;;19.43;50.20;96851.38;10170533;29;20123;-83
2022/05/27 11:40:15;;;;;;;1.05;0.75;;;;;;;19.44;50.14;96844.84;10154716;29;20067;-83
2022/05/27 11:45:35;;;;;;;0.77;0.75;;;;;;;19.45;50.12;96845.66;10189190;29;20439;-83
2022/05/27 11:51:00;;;;;;;2.45;1.02;;;;;;;19.46;50.03;96848.03;10171438;29;20064;-83
2022/05/27 11:56:38;;;;;;;0.95;0.80;;;;;;;19.49;50.01;96858.19;10171626;29;20048;-83
2022/05/27 12:02:03;;;;;;;1.25;0.82;;;;;;;19.51;49.90;96845.16;10201729;29;20052;-83
2022/05/27 12:07:29;;;;;;;1.67;1.00;;;;;;;19.51;49.91;96845.16;10166971;29;20048;-83
2022/05/27 12:13:05;;;;;;;1.10;1.00;;;;;;;19.52;49.95;96852.16;10169292;29;20078;-84
2022/05/27 12:18:44;;;;;;;1.40;0.93;;;;;;;19.54;49.81;96833.72;10112259;29;20057;-84
2022/05/27 12:24:21;;;;;;;1.60;0.90;;;;;;;19.55;49.83;96840.69;10143680;29;20056;-83
2022/05/27 12:29:43;;;;;;;1.95;0.95;;;;;;;19.58;49.86;96833.06;10140747;29;20075;-83
2022/05/27 12:35:28;;;;;;;1.10;1.00;;;;;;;19.60;49.86;96841.63;10132851;29;20508;-83
2022/05/27 12:40:51;;;;;;;1.80;0.90;;;;;;;19.61;49.60;96837.81;10150609;29;20056;-83
2022/05/27 12:46:21;;;;;;;1.10;1.00;;;;;;;19.63;49.76;96832.88;10150435;29;20127;-82
2022/05/27 12:51:45;;;;;;;1.60;0.98;;;;;;;19.64;49.66;96821.75;10143616;29;20045;-83
2022/05/27 13:03:33;;;;;;;1.50;1.20;;;;;;;19.68;49.56;96825.41;10144321;29;20048;-83
2022/05/27 13:08:52;;;;;;;1.48;0.90;;;;;;;19.69;49.66;96837.00;10122778;29;20061;-83
2022/05/27 13:14:19;;;;;;;1.20;1.05;;;;;;;19.71;49.49;96864.50;10140583;29;20071;-83
2022/05/27 13:19:44;;;;;;;1.00;0.90;;;;;;;19.73;49.64;96859.59;10174778;29;20059;-83
2022/05/27 13:25:27;;;;;;;1.70;0.90;;;;;;;19.73;49.65;96859.59;10171414;29;20079;-83
2022/05/27 13:30:53;;;;;;;1.48;1.10;;;;;;;19.76;49.60;96867.06;10164641;29;20044;-83
2022/05/27 13:36:25;;;;;;;1.17;0.90;;;;;;;19.78;49.58;96870.22;10144361;29;20571;-83
2022/05/27 13:41:48;;;;;;;1.10;0.80;;;;;;;19.79;49.73;96882.63;10181593;29;20052;-83
2022/05/27 13:47:12;;;;;;;1.17;1.02;;;;;;;19.79;49.67;96869.09;10173887;29;20500;-83
2022/05/27 13:52:37;;;;;;;2.20;1.25;;;;;;;19.81;49.59;96864.16;10186943;29;20055;-83
2022/05/27 13:58:01;;;;;;;1.00;0.90;;;;;;;19.83;49.76;96870.03;10172776;29;20052;-83
2022/05/27 14:03:24;;;;;;;0.80;0.80;;;;;;;19.85;49.40;96881.31;10182900;29;20059;-83
2022/05/27 14:08:44;;;;;;;1.27;1.00;;;;;;;19.88;49.52;96879.91;10184045;29;20075;-83
2022/05/27 14:14:05;;;;;;;0.80;0.70;;;;;;;19.89;49.60;96887.66;10176426;29;20120;-83
2022/05/27 14:19:27;;;;;;;1.90;0.80;;;;;;;19.93;49.51;96883.22;10167249;29;20527;-83
2022/05/27 14:24:46;;;;;;;0.70;0.70;;;;;;;19.95;49.40;96872.06;10168415;29;20051;-83
2022/05/27 14:30:06;;;;;;;1.23;0.85;;;;;;;19.96;49.33;96865.53;10172044;29;20129;-83
2022/05/27 14:35:29;;;;;;;0.68;0.68;;;;;;;19.99;49.22;96869.50;10164588;29;20052;-83
2022/05/27 14:40:51;;;;;;;0.70;0.70;;;;;;;20.01;49.27;96857.22;10169987;29;20052;-83
2022/05/27 14:46:32;;;;;;;1.33;0.70;;;;;;;20.05;49.05;96862.78;10171243;29;20052;-83
2022/05/27 14:51:52;;;;;;;1.10;0.80;;;;;;;20.06;48.98;96865.16;10182725;29;20052;-83
2022/05/27 14:57:33;;;;;;;0.73;0.73;;;;;;;20.08;49.11;96856.75;10155683;29;20056;-83
2022/05/27 15:02:55;;;;;;;0.95;0.93;;;;;;;20.09;49.22;96858.31;10155252;29;20056;-83
2022/05/27 15:08:18;;;;;;;1.33;0.80;;;;;;;20.11;49.35;96878.53;10153666;29;20408;-83
2022/05/27 15:13:53;;;;;;;0.80;0.80;;;;;;;20.14;49.11;96856.22;10199030;29;20056;-84
2022/05/27 15:19:13;;;;;;;1.60;0.98;;;;;;;20.18;49.11;96883.41;10150427;29;20066;-84
2022/05/27 15:24:39;;;;;;;1.00;0.90;;;;;;;20.20;48.94;96864.94;10178113;29;20048;-83
2022/05/27 15:35:47;;;;;;;0.90;0.65;;;;;;;20.26;49.06;96846.63;10160395;29;20149;-84
2022/05/27 15:41:08;;;;;;;1.05;0.80;;;;;;;20.28;49.00;96847.06;10180996;29;20060;-83
2022/05/27 15:46:27;;;;;;;1.08;0.93;;;;;;;20.31;49.02;96844.50;10168742;29;20492;-83
2022/05/27 15:51:47;;;;;;;0.60;0.60;;;;;;;20.33;49.05;96822.53;10163745;29;20128;-84
2022/05/27 15:57:06;;;;;;;1.95;0.60;;;;;;;20.35;48.77;96812.97;10173952;29;20491;-83
2022/05/27 16:02:26;;;;;;;0.60;0.60;;;;;;;20.38;48.74;96816.94;10165116;29;20119;-84
2022/05/27 16:07:46;;;;;;;2.35;0.80;;;;;;;20.40;48.68;96814.69;10181444;29;20052;-84
2022/05/27 16:13:07;;;;;;;1.42;0.80;;;;;;;20.42;48.66;96823.25;10168185;29;20056;-84
2022/05/27 16:18:27;;;;;;;0.95;0.70;;;;;;;20.44;48.62;96809.41;10187148;29;20124;-84
2022/05/27 16:23:48;;;;;;;2.10;0.77;;;;;;;20.45;48.69;96811.78;10187021;29;20048;-84
2022/05/27 16:29:09;;;;;;;1.15;0.68;;;;;;;20.48;48.58;96789.50;10174176;29;20060;-84
2022/05/27 16:34:29;;;;;;;1.52;0.80;;;;;;;20.50;48.51;96798.06;10181017;29;20073;-83
2022/05/27 16:39:48;;;;;;;0.63;0.63;;;;;;;20.53;48.55;96796.63;10199308;29;20052;-84
2022/05/27 16:45:10;;;;;;;0.70;0.68;;;;;;;20.55;48.59;96799.78;10147365;29;20076;-84
2022/05/27 16:50:30;;;;;;;45.15;16.95;;;;;;;20.57;48.84;96802.16;10171430;29;20456;-84
2022/05/27 16:55:50;;;;;;;6.82;2.90;;;;;;;20.58;49.01;96795.63;10174154;29;20496;-84
2022/05/27 17:01:09;;;;;;;10.07;3.88;;;;;;;20.59;50.06;96792.63;10174843;29;20048;-84
2022/05/27 17:06:28;;;;;;;9.05;3.15;;;;;;;20.64;49.57;96797.03;10158191;29;20056;-83
2022/05/27 17:11:47;;;;;;;8.48;2.30;;;;;;;20.67;49.75;96801.78;10174669;29;20431;-83
2022/05/27 17:17:07;;;;;;;4.65;1.95;;;;;;;20.70;49.52;96798.44;10154963;29;20304;-83
2022/05/27 17:22:26;;;;;;;5.78;2.30;;;;;;;20.72;49.28;96794.25;10187132;29;20056;-83
2022/05/27 17:27:46;;;;;;;6.30;2.17;;;;;;;20.72;49.59;96805.09;10179865;29;20048;-83
2022/05/27 17:33:06;;;;;;;3.45;1.60;;;;;;;20.74;49.45;96805.53;10177587;29;20052;-82
2022/05/27 17:38:26;;;;;;;5.15;1.65;;;;;;;20.75;49.45;96803.63;10176066;29;20052;-83
2022/05/27 17:43:45;;;;;;;2.75;1.30;;;;;;;20.78;49.30;96808.38;10187692;29;20048;-82
2022/05/27 17:54:44;;;;;;;3.17;1.00;;;;;;;20.63;48.86;96798.94;10157280;29;20056;-83
2022/05/27 18:00:04;;;;;;;2.67;1.08;;;;;;;20.46;49.11;96791.72;10184542;29;20052;-83
2022/05/27 18:05:25;;;;;;;1.48;0.80;;;;;;;20.37;49.11;96791.00;10189715;29;20103;-83
2022/05/27 18:10:45;;;;;;;1.52;1.08;;;;;;;20.20;49.49;96791.91;10202757;29;20048;-84
2022/05/27 18:16:08;;;;;;;1.10;0.90;;;;;;;20.09;49.64;96788.81;10168393;29;20058;-83
2022/05/27 18:21:28;;;;;;;1.38;1.27;;;;;;;20.10;49.44;96811.22;10168241;29;20045;-83
2022/05/27 18:26:48;;;;;;;1.17;0.90;;;;;;;20.03;49.73;96819.06;10169437;29;20047;-83
2022/05/27 18:32:08;;;;;;;1.00;0.90;;;;;;;19.97;49.95;96809.53;10164338;29;20415;-83
2022/05/27 18:37:28;;;;;;;1.30;1.00;;;;;;;20.00;50.46;96817.00;10173190;29;20428;-84
2022/05/27 18:42:47;;;;;;;1.60;1.10;;;;;;;20.20;50.01;96827.06;10177816;29;20060;-83
2022/05/27 18:48:08;;;;;;;0.90;0.90;;;;;;;20.31;50.03;96820.16;10171432;29;20052;-83
2022/05/27 18:53:27;;;;;;;1.25;0.90;;;;;;;20.41;49.98;96819.00;10171322;29;20060;-82
2022/05/27 18:58:47;;;;;;;1.08;0.90;;;;;;;20.49;49.88;96817.34;10157774;29;20494;-83
2022/05/27 19:04:07;;;;;;;1.52;0.93;;;;;;;20.51;49.72;96828.63;10175206;29;20060;-84
2022/05/27 19:09:26;;;;;;;0.80;0.80;;;;;;;20.54;49.54;96830.66;10158049;29;20059;-83
2022/05/27 19:14:47;;;;;;;0.85;0.82;;;;;;;20.57;49.42;96835.44;10176950;29;20055;-83
2022/05/27 19:25:46;;;;;;;1.00;0.90;;;;;;;20.61;49.13;96833.66;10176684;29;20461;-84
2022/05/27 19:31:06;;;;;;;1.05;0.85;;;;;;;20.64;49.07;96843.03;10168560;29;20056;-83
2022/05/27 19:36:25;;;;;;;0.80;0.70;;;;;;;20.66;49.05;96851.63;10181749;29;20088;-83
2022/05/27 19:41:44;;;;;;;0.93;0.80;;;;;;;20.68;48.93;96860.19;10164056;29;20060;-84
2022/05/27 19:47:04;;;;;;;1.17;0.90;;;;;;;20.70;48.67;96855.28;10177287;29;20053;-83
2022/05/27 19:52:24;;;;;;;0.98;0.90;;;;;;;20.71;48.72;96860.34;10189608;29;20044;-84
2022/05/27 20:09:04;;;;;;;1.23;0.90;;;;;;;20.79;48.34;96879.56;10179606;29;20301;-85
2022/05/27 20:14:24;;;;;;;1.00;0.73;;;;;;;20.82;48.34;96873.50;10140908;29;20867;-85
2022/05/27 20:19:44;;;;;;;1.00;0.90;;;;;;;20.84;48.32;96882.09;10143560;29;20048;-85
2022/05/27 20:25:04;;;;;;;1.08;0.98;;;;;;;20.85;48.26;96872.81;10155145;29;20052;-84
2022/05/27 20:30:24;;;;;;;1.00;0.90;;;;;;;20.87;48.17;96870.59;10163219;29;20041;-84
2022/05/27 20:41:21;;;;;;;0.87;0.80;;;;;;;20.90;47.98;96869.94;10171396;29;20046;-85
2022/05/27 20:46:42;;;;;;;0.85;0.85;;;;;;;20.93;47.82;96866.53;10175206;29;20522;-85
2022/05/27 20:52:05;;;;;;;1.58;0.82;;;;;;;20.94;47.82;96860.03;10175244;29;20048;-85
2022/05/27 20:57:24;;;;;;;0.70;0.70;;;;;;;20.96;47.81;96857.78;10188812;29;20575;-84
2022/05/27 21:02:44;;;;;;;1.25;0.95;;;;;;;20.97;47.50;96862.03;10188033;29;20048;-85
2022/05/27 21:08:03;;;;;;;1.40;1.15;;;;;;;20.98;47.45;96858.22;10155381;29;20068;-85
2022/05/27 21:13:23;;;;;;;1.02;0.93;;;;;;;20.98;47.45;96852.03;10169967;29;20534;-85
2022/05/27 21:18:43;;;;;;;1.13;0.80;;;;;;;20.99;47.30;96861.72;10177028;29;20052;-85
2022/05/27 21:24:03;;;;;;;0.80;0.80;;;;;;;21.00;47.17;96857.91;10173278;29;20052;-84
2022/05/27 21:29:23;;;;;;;1.05;0.88;;;;;;;20.99;47.07;96867.91;10159828;29;20076;-85
2022/05/27 21:34:43;;;;;;;1.30;0.95;;;;;;;21.01;46.85;96867.59;10168713;29;20130;-85
2022/05/27 21:40:03;;;;;;;1.17;0.90;;;;;;;21.00;46.97;96863.31;10171275;29;20500;-84
2022/05/27 21:45:23;;;;;;;1.10;1.00;;;;;;;21.00;46.92;96858.69;10167531;29;20108;-85
2022/05/27 21:50:42;;;;;;;1.25;1.00;;;;;;;21.00;46.75;96855.97;10182715;29;20048;-85
2022/05/27 21:56:02;;;;;;;0.82;0.82;;;;;;;21.00;46.97;96855.19;10171348;29;20420;-83
2022/05/27 22:01:24;;;;;;;1.42;1.15;;;;;;;20.99;46.84;96851.66;10173569;29;20058;-84
2022/05/27 22:06:43;;;;;;;1.02;0.95;;;;;;;21.00;46.73;96857.91;10172152;29;20075;-84
2022/05/27 22:17:41;;;;;;;1.40;1.02;;;;;;;21.00;46.69;96864.09;10137642;29;20064;-85
2022/05/27 22:23:01;;;;;;;1.50;1.20;;;;;;;20.99;46.59;96862.50;10184449;29;20052;-84
2022/05/27 22:28:20;;;;;;;1.30;1.02;;;;;;;20.99;46.55;96859.00;10158931;29;20516;-85
2022/05/27 22:33:40;;;;;;;1.08;0.88;;;;;;;20.99;46.60;96861.72;10158585;29;20056;-84
2022/05/27 22:38:59;;;;;;;1.40;1.10;;;;;;;21.00;46.65;96863.31;10162545;29;20115;-85
2022/05/27 22:44:19;;;;;;;1.45;1.10;;;;;;;20.98;46.70;96860.94;10141563;29;20056;-85
2022/05/27 22:49:38;;;;;;;1.40;1.05;;;;;;;20.98;46.46;96854.72;10159959;29;20056;-84
2022/05/27 22:54:57;;;;;;;1.60;1.10;;;;;;;20.97;46.47;96853.91;10156463;29;20056;-84
2022/05/27 23:00:17;;;;;;;1.55;1.10;;;;;;;20.94;46.29;96849.97;10167398;29;20059;-85
2022/05/27 23:05:37;;;;;;;2.08;0.98;;;;;;;20.94;46.39;96841.84;10167363;29;20108;-84
2022/05/27 23:11:01;;;;;;;1.58;1.10;;;;;;;20.93;46.37;96847.59;10155141;29;20051;-85
2022/05/27 23:21:58;;;;;;;1.73;1.20;;;;;;;20.92;46.20;96844.09;10177991;29;20075;-84
2022/05/27 23:27:17;;;;;;;1.33;1.10;;;;;;;20.93;46.10;96844.88;10161976;29;20311;-85
2022/05/27 23:32:37;;;;;;;1.40;1.10;;;;;;;20.92;46.01;96840.59;10168109;29;20381;-85
2022/05/27 23:37:57;;;;;;;1.40;0.98;;;;;;;20.90;45.78;96829.31;10154409;29;20133;-84
2022/05/27 23:43:18;;;;;;;1.77;1.08;;;;;;;20.90;45.86;96843.63;10149905;29;20071;-84
2022/05/27 23:48:39;;;;;;;2.03;1.05;;;;;;;20.89;45.81;96833.91;10166846;29;20060;-85
2022/05/27 23:53:58;;;;;;;1.88;1.00;;;;;;;20.88;45.61;96820.72;10167132;29;20673;-84
2022/05/27 23:59:18;;;;;;;1.77;1.02;;;;;;;20.87;45.64;96821.84;10167133;29;20528;-84
